createdAt,value
2018-05-31T00:03:35.320Z,54.87
2018-05-31T00:07:37.788Z,54.96
2018-05-31T00:11:40.277Z,55.29
2018-05-31T00:15:42.762Z,55.20
2018-05-31T00:19:46.321Z,55.49
2018-05-31T00:23:48.920Z,55.74
2018-05-31T00:27:52.298Z,55.76
2018-05-31T00:31:54.803Z,56.03
2018-05-31T00:35:57.326Z,56.13
2018-05-31T00:39:59.798Z,56.35
2018-05-31T00:44:02.300Z,56.42
2018-05-31T00:48:04.768Z,56.40
2018-05-31T00:52:07.256Z,56.33
2018-05-31T00:56:16.649Z,56.49
2018-05-31T01:00:19.154Z,56.82
2018-05-31T01:04:21.618Z,57.32
2018-05-31T01:08:24.092Z,57.33
2018-05-31T01:12:26.594Z,57.39
2018-05-31T01:16:29.058Z,57.54
2018-05-31T01:20:31.555Z,57.95
2018-05-31T01:24:34.026Z,57.78
2018-05-31T01:28:37.529Z,57.80
2018-05-31T01:32:40.022Z,57.82
2018-05-31T01:36:42.504Z,58.20
2018-05-31T01:40:45.005Z,58.08
2018-05-31T01:44:47.496Z,57.98
2018-05-31T01:48:49.998Z,58.08
2018-05-31T01:52:52.464Z,58.15
2018-05-31T01:56:54.960Z,58.37
2018-05-31T02:00:58.395Z,58.47
2018-05-31T02:05:00.883Z,58.34
2018-05-31T02:09:04.372Z,58.22
2018-05-31T02:13:06.872Z,58.04
2018-05-31T02:17:09.365Z,58.25
2018-05-31T02:21:11.849Z,58.42
2018-05-31T02:25:14.329Z,58.59
2018-05-31T02:29:16.814Z,58.63
2018-05-31T02:33:19.311Z,58.78
2018-05-31T02:37:21.790Z,59.07
2018-05-31T02:41:24.282Z,59.28
2018-05-31T02:45:26.763Z,59.52
2018-05-31T02:49:29.265Z,59.64
2018-05-31T02:53:31.735Z,59.77
2018-05-31T02:57:34.237Z,59.78
2018-05-31T03:01:36.739Z,59.83
2018-05-31T03:05:39.212Z,59.70
2018-05-31T03:09:42.631Z,60.27
2018-05-31T03:13:45.140Z,60.55
2018-05-31T03:17:47.827Z,60.20
2018-05-31T03:21:50.611Z,59.84
2018-05-31T03:25:53.109Z,59.64
2018-05-31T03:29:56.462Z,59.63
2018-05-31T03:33:58.968Z,59.58
2018-05-31T03:38:01.453Z,59.42
2018-05-31T03:42:03.944Z,59.38
2018-05-31T03:46:06.443Z,59.45
2018-05-31T03:50:08.976Z,59.54
2018-05-31T03:54:11.467Z,59.52
2018-05-31T03:58:13.973Z,59.60
2018-05-31T04:02:16.491Z,60.27
2018-05-31T04:06:18.966Z,60.67
2018-05-31T04:10:21.462Z,60.84
2018-05-31T04:14:29.857Z,61.34
2018-05-31T04:18:32.323Z,61.84
2018-05-31T04:22:34.816Z,62.00
2018-05-31T04:26:37.334Z,62.02
2018-05-31T04:30:39.817Z,62.20
2018-05-31T04:34:42.334Z,62.06
2018-05-31T04:38:44.855Z,62.01
2018-05-31T04:42:47.332Z,61.99
2018-05-31T04:46:49.857Z,62.17
2018-05-31T04:50:52.347Z,62.27
2018-05-31T04:54:54.830Z,62.32
2018-05-31T04:58:57.335Z,62.39
2018-05-31T05:02:59.838Z,62.06
2018-05-31T05:07:02.343Z,62.02
2018-05-31T05:11:04.820Z,61.95
2018-05-31T05:15:07.319Z,61.74
2018-05-31T05:19:09.832Z,61.38
2018-05-31T05:23:12.331Z,60.72
2018-05-31T05:27:14.835Z,60.45
2018-05-31T05:31:17.328Z,59.61
2018-05-31T05:35:19.836Z,59.31
2018-05-31T05:39:22.337Z,57.96
2018-05-31T05:43:24.841Z,57.27
2018-05-31T05:47:27.347Z,56.31
2018-05-31T05:51:29.827Z,55.67
2018-05-31T05:55:32.323Z,54.52
2018-05-31T05:59:34.836Z,53.90
2018-05-31T06:03:37.343Z,53.62
2018-05-31T06:07:39.854Z,53.47
2018-05-31T06:11:42.344Z,52.85
2018-05-31T06:15:44.847Z,51.99
2018-05-31T06:19:47.361Z,51.48
2018-05-31T06:23:49.806Z,49.69
2018-05-31T06:27:52.312Z,49.38
2018-05-31T06:31:54.816Z,48.83
2018-05-31T06:35:57.324Z,48.67
2018-05-31T06:39:59.829Z,48.76
2018-05-31T06:44:02.322Z,48.06
2018-05-31T06:48:04.780Z,48.09
2018-05-31T06:52:07.278Z,47.02
2018-05-31T06:56:10.696Z,47.51
2018-05-31T07:00:13.184Z,46.60
2018-05-31T07:04:15.683Z,46.77
2018-05-31T07:08:18.141Z,45.86
2018-05-31T07:12:20.636Z,46.21
2018-05-31T07:16:23.193Z,46.33
2018-05-31T07:20:25.653Z,45.28
2018-05-31T07:24:28.139Z,45.84
2018-05-31T07:28:30.625Z,44.31
2018-05-31T07:32:33.107Z,44.35
2018-05-31T07:36:35.637Z,43.73
2018-05-31T07:40:38.163Z,43.40
2018-05-31T07:44:40.650Z,43.60
2018-05-31T07:48:43.131Z,43.72
2018-05-31T07:52:45.651Z,43.95
2018-05-31T07:56:48.116Z,43.79
2018-05-31T08:00:50.637Z,42.90
2018-05-31T08:04:53.139Z,41.82
2018-05-31T08:08:55.634Z,41.84
2018-05-31T08:12:58.105Z,41.74
2018-05-31T08:17:00.593Z,41.46
2018-05-31T08:21:03.083Z,41.06
2018-05-31T08:25:05.582Z,41.21
2018-05-31T08:29:08.041Z,41.49
2018-05-31T08:33:10.831Z,41.58
2018-05-31T08:37:13.313Z,39.77
2018-05-31T08:41:15.799Z,39.06
2018-05-31T08:45:18.302Z,39.32
2018-05-31T08:49:20.789Z,39.17
2018-05-31T08:53:23.276Z,39.52
2018-05-31T08:57:26.715Z,38.46
2018-05-31T09:01:29.195Z,38.13
2018-05-31T09:05:31.679Z,37.32
2018-05-31T09:09:34.172Z,37.54
2018-05-31T09:13:36.653Z,37.90
2018-05-31T09:17:39.153Z,37.42
2018-05-31T09:21:41.647Z,37.44
2018-05-31T09:25:44.144Z,36.73
2018-05-31T09:29:46.629Z,36.33
2018-05-31T09:33:49.118Z,36.47
2018-05-31T09:37:51.586Z,36.14
2018-05-31T09:41:54.065Z,36.02
2018-05-31T09:45:56.546Z,35.80
2018-05-31T09:49:59.041Z,34.48
2018-05-31T09:54:01.561Z,33.99
2018-05-31T09:58:04.042Z,34.19
2018-05-31T10:02:06.526Z,33.71
2018-05-31T10:06:09.018Z,33.26
2018-05-31T10:10:11.506Z,31.69
2018-05-31T10:14:13.976Z,31.67
2018-05-31T10:18:16.444Z,31.57
2018-05-31T10:22:18.931Z,31.23
2018-05-31T10:26:21.416Z,31.79
2018-05-31T10:30:23.916Z,31.70
2018-05-31T10:34:26.385Z,31.68
2018-05-31T10:38:28.869Z,32.38
2018-05-31T10:42:31.347Z,32.57
2018-05-31T10:46:33.887Z,32.33
2018-05-31T10:50:36.315Z,32.58
2018-05-31T10:54:38.792Z,31.84
2018-05-31T10:58:41.287Z,32.18
2018-05-31T11:02:43.759Z,32.12
2018-05-31T11:06:46.246Z,31.87
2018-05-31T11:10:48.736Z,32.44
2018-05-31T11:14:51.278Z,32.46
2018-05-31T11:18:53.709Z,32.77
2018-05-31T11:22:56.194Z,31.96
2018-05-31T11:26:58.680Z,32.37
2018-05-31T11:31:01.167Z,32.79
2018-05-31T11:35:03.648Z,33.13
2018-05-31T11:39:06.133Z,32.75
2018-05-31T11:43:08.633Z,32.65
2018-05-31T11:47:11.116Z,33.54
2018-05-31T11:51:13.608Z,32.67
2018-05-31T11:55:16.073Z,32.33
2018-05-31T11:59:18.571Z,32.63
2018-05-31T12:03:21.081Z,32.92
2018-05-31T12:07:23.573Z,33.21
2018-05-31T12:11:26.031Z,32.33
2018-05-31T12:15:28.515Z,32.85
2018-05-31T12:19:31.003Z,33.00
2018-05-31T12:23:33.483Z,33.24
2018-05-31T12:27:35.973Z,32.38
2018-05-31T12:31:38.432Z,32.33
2018-05-31T12:35:40.922Z,32.71
2018-05-31T12:39:43.399Z,32.39
2018-05-31T12:43:45.883Z,32.95
2018-05-31T12:47:48.422Z,32.38
2018-05-31T12:51:50.875Z,32.19
2018-05-31T12:55:53.369Z,31.56
2018-05-31T12:59:55.856Z,32.69
2018-05-31T13:03:58.335Z,32.15
2018-05-31T13:08:00.820Z,32.37
2018-05-31T13:12:03.312Z,31.99
2018-05-31T13:16:05.773Z,32.38
2018-05-31T13:20:08.247Z,32.72
2018-05-31T13:24:10.728Z,31.84
2018-05-31T13:28:13.222Z,32.31
2018-05-31T13:32:15.699Z,32.10
2018-05-31T13:36:18.190Z,32.21
2018-05-31T13:40:20.660Z,32.12
2018-05-31T13:44:23.144Z,31.77
2018-05-31T13:48:25.634Z,31.67
2018-05-31T13:52:28.113Z,31.90
2018-05-31T13:56:30.612Z,32.33
2018-05-31T14:00:33.081Z,32.07
2018-05-31T14:04:35.568Z,31.89
2018-05-31T14:08:38.056Z,31.89
2018-05-31T14:12:40.566Z,31.82
2018-05-31T14:16:43.026Z,31.76
2018-05-31T14:20:45.509Z,31.72
2018-05-31T14:24:47.993Z,32.40
2018-05-31T14:28:50.469Z,32.60
2018-05-31T14:32:52.959Z,32.71
2018-05-31T14:36:55.446Z,32.77
2018-05-31T14:40:57.936Z,32.70
2018-05-31T14:45:00.393Z,32.90
2018-05-31T14:49:02.913Z,32.39
2018-05-31T14:53:05.384Z,32.91
2018-05-31T14:57:07.844Z,33.36
2018-05-31T15:01:10.326Z,33.14
2018-05-31T15:05:12.815Z,33.67
2018-05-31T15:09:15.305Z,33.18
2018-05-31T15:13:17.791Z,33.04
2018-05-31T15:17:20.247Z,33.56
2018-05-31T15:21:22.745Z,33.50
2018-05-31T15:25:25.196Z,34.08
2018-05-31T15:29:27.679Z,34.04
2018-05-31T15:33:30.165Z,34.18
2018-05-31T15:37:32.639Z,33.81
2018-05-31T15:41:35.123Z,34.04
2018-05-31T15:45:37.611Z,34.19
2018-05-31T15:49:40.074Z,34.18
2018-05-31T15:53:42.557Z,34.48
2018-05-31T15:57:45.031Z,34.71
2018-05-31T16:01:47.515Z,34.72
2018-05-31T16:05:50.007Z,35.30
2018-05-31T16:09:52.495Z,35.37
2018-05-31T16:13:54.981Z,35.46
2018-05-31T16:17:57.468Z,35.74
2018-05-31T16:21:59.954Z,35.82
2018-05-31T16:26:02.423Z,36.08
2018-05-31T16:30:04.908Z,36.62
2018-05-31T16:34:07.395Z,36.98
2018-05-31T16:38:09.861Z,37.76
2018-05-31T16:42:12.355Z,36.69
2018-05-31T16:46:14.846Z,36.77
2018-05-31T16:50:17.332Z,36.83
2018-05-31T16:54:19.814Z,37.33
2018-05-31T16:58:22.303Z,38.32
2018-05-31T17:02:24.779Z,38.84
2018-05-31T17:06:27.264Z,38.44
2018-05-31T17:10:29.755Z,37.99
2018-05-31T17:14:32.225Z,38.09
2018-05-31T17:18:34.722Z,38.58
2018-05-31T17:22:37.212Z,39.26
2018-05-31T17:26:39.682Z,38.96
2018-05-31T17:30:42.176Z,39.02
2018-05-31T17:34:44.657Z,39.67
2018-05-31T17:38:47.144Z,39.98
2018-05-31T17:42:49.618Z,39.99
2018-05-31T17:46:52.125Z,40.57
2018-05-31T17:50:54.604Z,40.22
2018-05-31T17:54:57.084Z,40.76
2018-05-31T17:58:59.569Z,40.65
2018-05-31T18:03:02.064Z,40.71
2018-05-31T18:07:04.576Z,40.86
2018-05-31T18:11:07.069Z,40.83
2018-05-31T18:15:09.534Z,41.25
2018-05-31T18:19:12.022Z,41.31
2018-05-31T18:23:14.521Z,41.89
2018-05-31T18:27:17.015Z,42.49
2018-05-31T18:31:19.515Z,42.66
2018-05-31T18:35:22.006Z,42.68
2018-05-31T18:39:24.494Z,42.91
2018-05-31T18:43:26.990Z,43.40
2018-05-31T18:47:29.533Z,44.24
2018-05-31T18:51:31.995Z,45.34
2018-05-31T18:55:34.489Z,45.74
2018-05-31T18:59:36.952Z,45.60
2018-05-31T19:03:39.440Z,46.60
2018-05-31T19:07:42.936Z,47.06
2018-05-31T19:11:45.435Z,46.78
2018-05-31T19:15:47.910Z,46.69
2018-05-31T19:19:55.345Z,46.42
2018-05-31T19:23:57.835Z,46.34
2018-05-31T19:28:00.308Z,46.36
2018-05-31T19:32:02.791Z,46.21
2018-05-31T19:36:11.545Z,46.21
2018-05-31T19:40:14.025Z,46.80
2018-05-31T19:44:22.049Z,46.55
2018-05-31T19:48:24.550Z,45.93
2018-05-31T19:52:32.665Z,46.28
2018-05-31T19:56:35.124Z,46.16
2018-05-31T20:00:43.135Z,45.63
2018-05-31T20:04:45.594Z,45.56
2018-05-31T20:08:48.075Z,45.80
2018-05-31T20:12:50.539Z,46.03
2018-05-31T20:16:53.027Z,46.04
2018-05-31T20:20:55.504Z,46.20
2018-05-31T20:24:57.993Z,46.74
2018-05-31T20:29:00.475Z,46.64
2018-05-31T20:33:02.945Z,46.76
2018-05-31T20:37:05.434Z,46.87
2018-05-31T20:41:07.934Z,46.98
2018-05-31T20:45:10.421Z,47.22
2018-05-31T20:49:12.923Z,47.25
2018-05-31T20:53:15.419Z,47.46
2018-05-31T20:57:17.886Z,48.60
2018-05-31T21:01:20.378Z,48.77
2018-05-31T21:05:22.840Z,49.11
2018-05-31T21:09:25.328Z,49.36
2018-05-31T21:13:27.833Z,49.44
2018-05-31T21:17:30.284Z,49.79
2018-05-31T21:21:32.771Z,49.79
2018-05-31T21:25:35.250Z,50.18
2018-05-31T21:29:37.770Z,50.45
2018-05-31T21:33:40.240Z,50.50
2018-05-31T21:37:42.738Z,50.52
2018-05-31T21:41:45.229Z,50.54
2018-05-31T21:45:47.714Z,50.64
2018-05-31T21:49:50.224Z,50.65
2018-05-31T21:53:52.683Z,50.83
2018-05-31T21:57:55.186Z,51.29
2018-05-31T22:01:57.666Z,51.89
2018-05-31T22:06:00.145Z,52.58
2018-05-31T22:10:02.631Z,52.47
2018-05-31T22:14:05.119Z,52.31
2018-05-31T22:18:07.615Z,52.10
2018-05-31T22:22:10.095Z,52.10
2018-05-31T22:26:12.591Z,52.43
2018-05-31T22:30:15.052Z,52.50
2018-05-31T22:34:17.535Z,52.37
2018-05-31T22:38:20.030Z,52.38
2018-05-31T22:42:22.504Z,52.38
2018-05-31T22:46:24.991Z,52.30
2018-05-31T22:50:27.468Z,52.19
2018-05-31T22:54:29.968Z,52.60
2018-05-31T22:58:32.451Z,52.99
2018-05-31T23:02:34.936Z,53.37
2018-05-31T23:06:37.419Z,53.47
2018-05-31T23:10:39.918Z,53.57
2018-05-31T23:14:42.378Z,53.51
2018-05-31T23:18:44.850Z,53.55
2018-05-31T23:22:47.361Z,53.42
2018-05-31T23:26:49.839Z,53.53
2018-05-31T23:30:52.335Z,53.80
2018-05-31T23:34:54.819Z,54.17
2018-05-31T23:38:57.307Z,54.32
2018-05-31T23:42:59.786Z,54.56
2018-05-31T23:47:02.248Z,54.79
2018-05-31T23:51:04.734Z,54.82
2018-05-31T23:55:07.217Z,55.17
2018-05-31T23:59:09.713Z,55.24
